Bissett, Canada
Current Conditions -  °F | °C
As of 9:00 PM on Wednesday 17 Dec 2014 (Local Time) from CYRL Reporting Station
Clear Clear  
Wind Chill: -19°   Ceiling: Unl
Heat Index: -19°   Visibility: 15mi
Dew Point: -21°   Wind: 3mph
Humidity: 85%   Direction: 90°E
Pressure: 30.32"   Gusts: NA
Location:  51.02°N, 95.67°W
Report Text: CYRL 180300Z 09003KT 15SM SKC M19/M21 A3032 RMK FROIN LAST STFD OBS/NEXT 181000UTC SLP311
Loading
Personal Weather Stations






























Interactive Weather Map New forecast layout! Learn more

10-Day Weather Forecast

Advertisements
Track Severe Weather on mobile